Time;durP1;ratioP1;P1;durP2;ratioP2;P2;SDS_P1;SDS_P2;PMS_P1;PMS_P2;Temp;Humidity;BMP_temperature;BMP_pressure;BME280_temperature;BME280_humidity;BME280_pressure;Samples;Min_cycle;Max_cycle;Signal;HPM_P1;HPM_P2
2022/08/02 00:01:21;;;;;;;;;;;;;;;21.44;29.61;97553.19;4898716;29;995;-79
2022/08/02 00:03:46;;;;;;;;;;;;;;;21.36;29.91;97551.06;4901341;29;939;-79
2022/08/02 00:06:11;;;;;;;;;;;;;;;21.54;29.63;97548.44;4901134;29;942;-79
2022/08/02 00:08:37;;;;;;;;;;;;;;;21.49;29.83;97554.66;4900228;29;878;-79
2022/08/02 00:11:02;;;;;;;;;;;;;;;21.50;29.67;97548.56;4901546;29;965;-78
2022/08/02 00:13:28;;;;;;;;;;;;;;;21.50;29.60;97550.59;4901015;29;1910;-79
2022/08/02 00:15:53;;;;;;;;;;;;;;;21.37;29.98;97552.66;4901733;29;931;-79
2022/08/02 00:18:19;;;;;;;;;;;;;;;21.39;30.17;97555.81;4901081;29;940;-79
2022/08/02 00:20:44;;;;;;;;;;;;;;;21.43;29.79;97559.31;4901096;29;901;-79
2022/08/02 00:23:10;;;;;;;;;;;;;;;21.49;29.98;97549.00;4901599;29;983;-79
2022/08/02 00:25:35;;;;;;;;;;;;;;;21.43;29.81;97554.44;4901269;29;924;-78
2022/08/02 00:28:00;;;;;;;;;;;;;;;21.51;29.91;97541.66;4901496;29;942;-78
2022/08/02 00:30:26;;;;;;;;;;;;;;;21.41;30.14;97556.16;4900936;29;1152;-79
2022/08/02 00:32:51;;;;;;;;;;;;;;;21.30;30.11;97554.47;4880119;29;1977;-79
2022/08/02 00:35:17;;;;;;;;;;;;;;;21.32;30.04;97551.97;4842881;29;1133;-79
2022/08/02 00:37:42;;;;;;;;;;;;;;;21.41;29.75;97554.13;4812443;29;971;-78
2022/08/02 00:40:08;;;;;;;;;;;;;;;21.38;29.91;97555.03;4843271;29;973;-79
2022/08/02 00:42:33;;;;;;;;;;;;;;;21.31;30.28;97561.72;4843112;29;977;-78
2022/08/02 00:44:59;;;;;;;;;;;;;;;21.50;29.67;97557.06;4806363;29;1088;-79
2022/08/02 00:47:24;;;;;;;;;;;;;;;21.49;29.87;97560.31;4806703;29;889;-79
2022/08/02 00:49:50;;;;;;;;;;;;;;;21.56;29.82;97560.91;4806843;29;945;-79
2022/08/02 00:52:15;;;;;;;;;;;;;;;21.40;30.17;97557.38;4791160;29;1904;-79
2022/08/02 00:54:41;;;;;;;;;;;;;;;21.68;29.63;97562.13;4806315;29;942;-78
2022/08/02 00:57:06;;;;;;;;;;;;;;;21.54;29.72;97560.53;4776543;29;1034;-79
2022/08/02 00:59:31;;;;;;;;;;;;;;;21.49;30.24;97563.16;4806270;29;1117;-79
2022/08/02 01:01:57;;;;;;;;;;;;;;;21.59;29.82;97564.84;4806407;29;1018;-79
2022/08/02 01:04:22;;;;;;;;;;;;;;;21.60;29.98;97569.25;4806512;29;879;-78
2022/08/02 01:06:48;;;;;;;;;;;;;;;21.56;29.84;97565.78;4845943;29;1026;-78
2022/08/02 01:09:13;;;;;;;;;;;;;;;21.44;30.11;97567.34;4861107;29;989;-79
2022/08/02 01:11:39;;;;;;;;;;;;;;;21.51;29.86;97558.63;4861287;29;1907;-79
2022/08/02 01:14:08;;;;;;;;;;;;;;;21.46;30.07;97562.03;4861273;29;944;-78
2022/08/02 01:16:38;;;;;;;;;;;;;;;21.58;29.83;97563.25;4890686;29;1044;-79
2022/08/02 01:19:22;;;;;;;;;;;;;;;21.37;30.14;97564.75;4899668;29;939;-78
2022/08/02 01:21:54;;;;;;;;;;;;;;;21.42;30.16;97566.22;4900419;29;916;-79
2022/08/02 01:24:20;;;;;;;;;;;;;;;21.35;30.52;97560.78;4899402;29;950;-79
2022/08/02 01:26:46;;;;;;;;;;;;;;;21.24;30.75;97567.59;4900801;29;926;-79
2022/08/02 01:29:21;;;;;;;;;;;;;;;21.22;30.76;97561.56;4899641;29;1057;-79
2022/08/02 01:31:53;;;;;;;;;;;;;;;21.32;30.14;97566.13;4904011;29;1879;-79
2022/08/02 01:34:27;;;;;;;;;;;;;;;21.44;30.12;97558.06;4904002;29;1612;-80
2022/08/02 01:37:22;;;;;;;;;;;;;;;21.45;30.06;97556.81;4903713;29;1264;-79
2022/08/02 01:39:50;;;;;;;;;;;;;;;21.36;30.37;97565.22;4864457;29;1185;-79
2022/08/02 01:42:16;;;;;;;;;;;;;;;21.37;30.37;97566.81;4864756;29;1074;-79
2022/08/02 01:44:41;;;;;;;;;;;;;;;21.27;30.73;97566.66;4864572;29;999;-79
2022/08/02 01:47:08;;;;;;;;;;;;;;;21.26;30.55;97553.75;4864584;29;1021;-79
2022/08/02 01:49:33;;;;;;;;;;;;;;;21.42;30.37;97560.56;4864492;29;1165;-79
2022/08/02 01:54:43;;;;;;;;;;;;;;;21.76;29.70;97562.66;4845587;29;982;-80
2022/08/02 01:57:09;;;;;;;;;;;;;;;21.53;30.12;97561.00;4845919;29;1026;-78
2022/08/02 01:59:34;;;;;;;;;;;;;;;21.45;30.33;97565.31;4845940;29;1027;-79
2022/08/02 02:01:59;;;;;;;;;;;;;;;21.33;30.66;97567.69;4826804;29;1174;-77
2022/08/02 02:04:25;;;;;;;;;;;;;;;21.19;30.71;97565.31;4812348;29;1113;-79
2022/08/02 02:06:51;;;;;;;;;;;;;;;21.44;30.36;97569.38;4812201;29;932;-80
2022/08/02 02:09:16;;;;;;;;;;;;;;;21.47;30.33;97560.78;4827082;29;1029;-79
2022/08/02 02:11:45;;;;;;;;;;;;;;;21.28;30.66;97556.91;4811787;29;1912;-79
2022/08/02 02:14:10;;;;;;;;;;;;;;;21.34;30.53;97571.31;4791034;30;996;-78
2022/08/02 02:16:36;;;;;;;;;;;;;;;21.27;30.25;97568.69;4790990;29;973;-80
2022/08/02 02:19:01;;;;;;;;;;;;;;;21.44;30.14;97575.84;4791015;30;968;-79
2022/08/02 02:21:27;;;;;;;;;;;;;;;21.39;30.37;97561.47;4790939;29;940;-79
2022/08/02 02:23:52;;;;;;;;;;;;;;;21.41;30.30;97570.31;4790611;30;1021;-78
2022/08/02 02:26:18;;;;;;;;;;;;;;;21.47;30.28;97571.31;4790773;29;1010;-79
2022/08/02 02:28:43;;;;;;;;;;;;;;;21.56;29.85;97562.94;4776460;30;979;-79
2022/08/02 02:31:09;;;;;;;;;;;;;;;21.47;29.83;97563.63;4790659;29;1096;-80
2022/08/02 02:33:36;;;;;;;;;;;;;;;21.35;30.18;97570.09;4803735;29;1919;-80
2022/08/02 02:36:01;;;;;;;;;;;;;;;21.51;29.80;97563.50;4808666;29;1075;-80
2022/08/02 02:38:27;;;;;;;;;;;;;;;21.41;29.88;97575.97;4810244;29;989;-79
2022/08/02 02:40:53;;;;;;;;;;;;;;;21.24;30.13;97573.25;4790309;29;1017;-80
2022/08/02 02:43:18;;;;;;;;;;;;;;;21.35;29.96;97567.25;4775621;30;959;-78
2022/08/02 02:45:44;;;;;;;;;;;;;;;21.26;30.01;97570.75;4801800;29;992;-79
2022/08/02 02:48:09;;;;;;;;;;;;;;;21.23;29.97;97577.28;4826724;29;1042;-79
2022/08/02 02:50:35;;;;;;;;;;;;;;;21.33;29.85;97579.03;4826272;29;967;-79
2022/08/02 02:53:01;;;;;;;;;;;;;;;21.31;29.97;97570.19;4826283;29;1978;-78
2022/08/02 02:55:26;;;;;;;;;;;;;;;21.47;29.53;97574.94;4826408;29;952;-79
2022/08/02 02:57:51;;;;;;;;;;;;;;;21.51;29.37;97574.84;4826304;29;965;-78
2022/08/02 03:00:17;;;;;;;;;;;;;;;21.36;29.65;97582.22;4839816;29;1072;-79
2022/08/02 03:02:43;;;;;;;;;;;;;;;21.26;29.95;97576.41;4844834;29;986;-78
2022/08/02 03:05:08;;;;;;;;;;;;;;;20.94;30.54;97576.63;4844487;29;1076;-80
2022/08/02 03:07:34;;;;;;;;;;;;;;;21.18;30.11;97575.03;4844439;29;974;-79
2022/08/02 03:10:00;;;;;;;;;;;;;;;21.19;30.30;97576.63;4844524;29;986;-79
2022/08/02 03:12:26;;;;;;;;;;;;;;;21.26;29.91;97576.41;4870169;29;1967;-80
2022/08/02 03:14:52;;;;;;;;;;;;;;;21.35;29.91;97586.25;4901198;29;987;-79
2022/08/02 03:17:17;;;;;;;;;;;;;;;21.31;29.83;97587.19;4901199;29;984;-79
2022/08/02 03:19:43;;;;;;;;;;;;;;;21.43;29.49;97584.78;4902097;29;832;-79
2022/08/02 03:22:10;;;;;;;;;;;;;;;21.50;29.51;97590.22;4902442;29;921;-79
2022/08/02 03:24:35;;;;;;;;;;;;;;;21.33;29.88;97581.84;4900290;29;1047;-79
2022/08/02 03:27:01;;;;;;;;;;;;;;;21.23;30.23;97585.78;4893689;29;1276;-79
2022/08/02 03:29:26;;;;;;;;;;;;;;;21.36;29.87;97574.50;4891455;29;1329;-77
2022/08/02 03:31:52;;;;;;;;;;;;;;;21.38;29.57;97583.31;4892778;29;1899;-79
2022/08/02 03:34:17;;;;;;;;;;;;;;;21.43;29.94;97591.25;4875549;29;1230;-79
2022/08/02 03:36:43;;;;;;;;;;;;;;;21.52;29.89;97585.69;4891022;29;1387;-79
2022/08/02 03:39:08;;;;;;;;;;;;;;;21.31;30.50;97589.22;4891571;29;1221;-80
2022/08/02 03:41:34;;;;;;;;;;;;;;;21.35;30.34;97591.91;4868079;29;1341;-78
2022/08/02 03:44:00;;;;;;;;;;;;;;;21.43;29.93;97591.25;4880103;29;1549;-79
2022/08/02 03:46:25;;;;;;;;;;;;;;;21.35;30.25;97589.09;4861508;29;1710;-79
2022/08/02 03:48:51;;;;;;;;;;;;;;;21.75;29.97;97590.19;4846195;29;1601;-79
2022/08/02 03:51:17;;;;;;;;;;;;;;;21.46;30.39;97600.88;4828306;29;937;-79
2022/08/02 03:53:42;;;;;;;;;;;;;;;21.38;30.53;97593.84;4827764;29;1970;-79
2022/08/02 03:56:08;;;;;;;;;;;;;;;21.30;30.61;97594.09;4807045;29;1228;-79
2022/08/02 03:58:33;;;;;;;;;;;;;;;21.47;30.38;97588.31;4788885;29;1278;-79
2022/08/02 04:00:59;;;;;;;;;;;;;;;21.35;30.77;97594.75;4789337;29;987;-79
2022/08/02 04:03:24;;;;;;;;;;;;;;;21.31;31.15;97595.66;4788477;29;1750;-79
2022/08/02 04:05:50;;;;;;;;;;;;;;;21.38;30.91;97602.34;4788960;30;958;-79
2022/08/02 04:08:15;;;;;;;;;;;;;;;21.19;31.18;97598.44;4788665;29;1050;-78
2022/08/02 04:13:27;;;;;;;;;;;;;;;21.37;30.76;97606.41;4788890;29;1978;-78
2022/08/02 04:15:53;;;;;;;;;;;;;;;21.53;30.71;97606.28;4788917;29;954;-79
2022/08/02 04:18:18;;;;;;;;;;;;;;;21.66;30.47;97609.91;4788952;29;1073;-79
2022/08/02 04:20:44;;;;;;;;;;;;;;;21.69;30.26;97597.66;4773968;30;1028;-79
2022/08/02 04:23:09;;;;;;;;;;;;;;;21.61;30.44;97607.66;4774006;29;1013;-79
2022/08/02 04:25:35;;;;;;;;;;;;;;;21.51;30.59;97605.97;4772921;30;1687;-79
2022/08/02 04:28:00;;;;;;;;;;;;;;;21.31;31.02;97609.81;4773840;29;1567;-78
2022/08/02 04:30:26;;;;;;;;;;;;;;;21.39;31.27;97612.41;4820410;29;1008;-79
2022/08/02 04:32:51;;;;;;;;;;;;;;;21.59;30.85;97615.81;4825181;29;1911;-78
2022/08/02 04:35:17;;;;;;;;;;;;;;;21.42;31.33;97611.53;4824318;29;1316;-79
2022/08/02 04:37:43;;;;;;;;;;;;;;;21.44;31.01;97609.81;4809738;29;1060;-79
2022/08/02 04:40:09;;;;;;;;;;;;;;;21.42;31.10;97614.34;4810159;29;996;-79
2022/08/02 04:42:35;;;;;;;;;;;;;;;21.49;31.07;97612.06;4822957;29;1439;-79
2022/08/02 04:45:01;;;;;;;;;;;;;;;21.47;30.88;97613.78;4805820;29;1444;-79
2022/08/02 04:47:27;;;;;;;;;;;;;;;21.41;31.11;97627.72;4770631;30;982;-79
2022/08/02 04:49:53;;;;;;;;;;;;;;;21.48;31.02;97618.97;4770702;30;917;-78
2022/08/02 04:52:19;;;;;;;;;;;;;;;21.41;31.24;97621.25;4770840;30;1907;-78
2022/08/02 04:54:44;;;;;;;;;;;;;;;21.35;31.54;97617.38;4769550;30;2031;-79
2022/08/02 04:59:54;;;;;;;;;;;;;;;21.36;31.61;97619.00;4788016;30;1717;-78
2022/08/02 05:02:19;;;;;;;;;;;;;;;21.35;31.61;97614.56;4770257;30;958;-78
2022/08/02 05:04:45;;;;;;;;;;;;;;;21.58;31.16;97620.69;4772559;30;1087;-79
2022/08/02 05:07:10;;;;;;;;;;;;;;;21.45;31.56;97616.25;4789724;29;923;-79
2022/08/02 05:09:36;;;;;;;;;;;;;;;21.38;31.96;97605.97;4791439;29;980;-79
2022/08/02 05:12:01;;;;;;;;;;;;;;;21.43;31.71;97619.53;4776269;30;1946;-79
2022/08/02 05:14:27;;;;;;;;;;;;;;;21.46;31.79;97613.00;4791705;30;1366;-78
2022/08/02 05:16:52;;;;;;;;;;;;;;;21.44;32.14;97609.00;4791582;29;1083;-79
2022/08/02 05:19:17;;;;;;;;;;;;;;;21.37;32.29;97614.91;4791818;29;919;-78
2022/08/02 05:21:43;;;;;;;;;;;;;;;21.57;31.64;97613.44;4791696;29;1017;-79
2022/08/02 05:24:08;;;;;;;;;;;;;;;21.60;31.71;97606.06;4795081;29;1082;-78
2022/08/02 05:26:34;;;;;;;;;;;;;;;21.61;31.88;97607.66;4814122;29;1015;-79
2022/08/02 05:28:59;;;;;;;;;;;;;;;21.83;31.63;97605.69;4823959;29;962;-74
2022/08/02 05:31:25;;;;;;;;;;;;;;;21.69;32.19;97609.00;4864717;29;1036;-79
2022/08/02 05:33:50;;;;;;;;;;;;;;;21.59;32.79;97605.25;4870381;29;1998;-77
2022/08/02 05:36:16;;;;;;;;;;;;;;;21.24;33.93;97606.38;4866910;29;1159;-78
2022/08/02 05:38:41;;;;;;;;;;;;;;;21.01;34.17;97604.69;4866786;29;937;-76
2022/08/02 05:41:06;;;;;;;;;;;;;;;21.47;33.12;97599.63;4845919;29;1364;-76
2022/08/02 05:43:32;;;;;;;;;;;;;;;21.67;33.01;97605.84;4849272;29;1121;-78
2022/08/02 05:45:57;;;;;;;;;;;;;;;21.83;32.78;97607.75;4864173;29;944;-77
2022/08/02 05:48:23;;;;;;;;;;;;;;;21.78;32.91;97611.94;4865882;29;1486;-78
2022/08/02 05:50:51;;;;;;;;;;;;;;;21.89;33.03;97605.13;4863835;29;1056;-77
2022/08/02 05:53:19;;;;;;;;;;;;;;;21.90;33.03;97601.03;4864100;29;1915;-75
2022/08/02 05:55:50;;;;;;;;;;;;;;;22.26;32.77;97612.75;4848319;29;1010;-72
2022/08/02 05:58:27;;;;;;;;;;;;;;;22.83;34.28;97604.97;4848476;29;1004;-72
2022/08/02 06:00:52;;;;;;;;;;;;;;;22.97;35.84;97609.34;4863393;29;1297;-72
2022/08/02 06:03:30;;;;;;;;;;;;;;;22.99;36.89;97618.19;4847314;29;1536;-72
2022/08/02 06:05:59;;;;;;;;;;;;;;;23.16;37.29;97618.78;4844238;29;1864;-72
2022/08/02 06:08:27;;;;;;;;;;;;;;;23.29;37.53;97621.50;4844897;29;1803;-72
2022/08/02 06:10:54;;;;;;;;;;;;;;;23.43;37.42;97620.16;4808643;29;1012;-74
2022/08/02 06:13:19;;;;;;;;;;;;;;;23.29;37.62;97618.66;4826643;29;1990;-72
2022/08/02 06:15:45;;;;;;;;;;;;;;;23.71;36.93;97610.50;4844610;29;1092;-73
2022/08/02 06:18:10;;;;;;;;;;;;;;;23.86;37.62;97622.06;4840563;29;1545;-72
2022/08/02 06:20:36;;;;;;;;;;;;;;;23.70;37.78;97620.28;4838646;29;1730;-70
2022/08/02 06:23:05;;;;;;;;;;;;;;;23.77;37.45;97625.66;4832972;29;2575;-77
2022/08/02 06:25:31;;;;;;;;;;;;;;;23.81;37.14;97622.69;4823769;29;1132;-77
2022/08/02 06:27:57;;;;;;;;;;;;;;;23.82;36.73;97627.09;4810551;29;1946;-73
2022/08/02 06:30:23;;;;;;;;;;;;;;;23.95;36.88;97629.81;4790418;30;1021;-72
2022/08/02 06:32:51;;;;;;;;;;;;;;;24.17;36.33;97619.13;4775840;30;1997;-72
2022/08/02 06:35:17;;;;;;;;;;;;;;;24.45;36.31;97622.81;4790374;29;1256;-72
2022/08/02 06:37:52;;;;;;;;;;;;;;;24.52;36.11;97616.00;4826060;29;1001;-72
2022/08/02 06:40:43;;;;;;;;;;;;;;;24.49;36.16;97622.63;4812231;29;1837;-72
2022/08/02 06:43:15;;;;;;;;;;;;;;;24.48;36.20;97627.53;4808280;29;1122;-71
2022/08/02 06:45:41;;;;;;;;;;;;;;;24.33;36.82;97620.88;4790097;30;1214;-71
2022/08/02 06:48:06;;;;;;;;;;;;;;;24.04;36.71;97627.00;4790039;29;1138;-72
2022/08/02 06:50:32;;;;;;;;;;;;;;;23.82;36.12;97633.56;4789989;29;1014;-72
2022/08/02 06:52:57;;;;;;;;;;;;;;;23.55;36.09;97624.94;4786201;30;2867;-72
2022/08/02 06:55:23;;;;;;;;;;;;;;;23.57;35.43;97623.22;4787104;30;2182;-72
2022/08/02 06:57:48;;;;;;;;;;;;;;;23.54;34.78;97634.72;4771846;30;2117;-72
2022/08/02 07:00:14;;;;;;;;;;;;;;;23.49;34.52;97638.16;4771756;30;1006;-72
2022/08/02 07:02:39;;;;;;;;;;;;;;;23.60;34.16;97638.50;4786775;29;1097;-72
2022/08/02 07:05:05;;;;;;;;;;;;;;;23.49;34.19;97643.84;4772156;30;988;-72
2022/08/02 07:07:30;;;;;;;;;;;;;;;23.56;33.78;97640.69;4771941;30;1042;-72
2022/08/02 07:09:56;;;;;;;;;;;;;;;23.42;34.10;97644.91;4770969;30;1148;-72
2022/08/02 07:12:22;;;;;;;;;;;;;;;23.55;33.86;97653.31;4771861;30;1983;-74
2022/08/02 07:14:47;;;;;;;;;;;;;;;23.58;34.67;97646.72;4759288;30;1916;-75
2022/08/02 07:17:12;;;;;;;;;;;;;;;23.96;33.80;97642.75;4784286;29;1793;-74
2022/08/02 07:19:38;;;;;;;;;;;;;;;24.04;33.97;97644.06;4809813;29;999;-75
2022/08/02 07:22:03;;;;;;;;;;;;;;;23.90;34.29;97634.84;4844088;29;1063;-75
2022/08/02 07:24:29;;;;;;;;;;;;;;;24.16;34.06;97634.59;4845053;29;1126;-77
2022/08/02 07:26:54;;;;;;;;;;;;;;;23.92;34.84;97652.22;4837604;29;1993;-78
2022/08/02 07:29:20;;;;;;;;;;;;;;;23.64;34.58;97656.25;4825159;29;1043;-78
2022/08/02 07:31:45;;;;;;;;;;;;;;;23.44;34.45;97658.66;4829047;29;1010;-79
2022/08/02 07:34:11;;;;;;;;;;;;;;;23.47;33.49;97657.72;4843866;29;1911;-79
2022/08/02 07:36:36;;;;;;;;;;;;;;;23.18;33.62;97655.19;4843536;29;1601;-78
2022/08/02 07:39:01;;;;;;;;;;;;;;;23.37;32.99;97660.50;4843625;29;959;-79
2022/08/02 07:41:27;;;;;;;;;;;;;;;23.06;33.37;97663.34;4844032;29;1065;-79
2022/08/02 07:43:52;;;;;;;;;;;;;;;23.27;32.54;97667.41;4843728;29;1021;-79
2022/08/02 07:46:18;;;;;;;;;;;;;;;23.20;32.27;97661.97;4843566;29;1546;-80
2022/08/02 07:48:52;;;;;;;;;;;;;;;23.18;32.02;97658.81;5073442;28;1225;-79
2022/08/02 07:51:18;;;;;;;;;;;;;;;22.86;32.42;97654.34;5073357;28;917;-78
2022/08/02 07:53:43;;;;;;;;;;;;;;;23.08;31.86;97660.03;5070642;28;1352;-78
2022/08/02 07:56:08;;;;;;;;;;;;;;;23.02;31.91;97661.88;5050707;28;1479;-78
2022/08/02 07:58:34;;;;;;;;;;;;;;;23.03;32.02;97663.47;5050813;28;1019;-79
2022/08/02 08:00:59;;;;;;;;;;;;;;;22.76;32.29;97673.31;5009855;28;1368;-78
2022/08/02 08:03:25;;;;;;;;;;;;;;;23.06;31.39;97662.53;5010318;28;1454;-79
2022/08/02 08:05:53;;;;;;;;;;;;;;;23.03;31.60;97666.28;5010474;28;1471;-79
2022/08/02 08:08:18;;;;;;;;;;;;;;;22.90;31.59;97671.22;4990919;28;1902;-77
2022/08/02 08:10:44;;;;;;;;;;;;;;;22.76;31.80;97650.63;4991536;28;875;-78
2022/08/02 08:13:09;;;;;;;;;;;;;;;22.80;31.55;97654.13;4951620;28;1704;-79
2022/08/02 08:15:35;;;;;;;;;;;;;;;22.84;31.98;97657.63;4937250;29;1341;-78
2022/08/02 08:18:00;;;;;;;;;;;;;;;22.83;31.54;97666.59;4933203;29;992;-78
2022/08/02 08:20:26;;;;;;;;;;;;;;;22.67;31.92;97664.75;4933082;29;958;-78
2022/08/02 08:22:52;;;;;;;;;;;;;;;22.81;31.89;97657.75;4933056;29;942;-78
2022/08/02 08:25:17;;;;;;;;;;;;;;;22.71;31.94;97659.75;4946723;29;986;-78
2022/08/02 08:27:51;;;;;;;;;;;;;;;22.75;31.76;97654.72;4951850;29;1975;-78
2022/08/02 08:30:17;;;;;;;;;;;;;;;22.91;31.11;97655.81;4952463;29;928;-78
2022/08/02 08:32:43;;;;;;;;;;;;;;;22.76;31.59;97652.69;4982857;28;1016;-71
2022/08/02 08:35:08;;;;;;;;;;;;;;;23.12;33.57;97669.19;4990956;28;988;-71
2022/08/02 08:37:37;;;;;;;;;;;;;;;23.53;33.32;97667.22;4990680;28;1628;-78
2022/08/02 08:40:06;;;;;;;;;;;;;;;23.07;33.53;97647.88;4967377;28;1275;-78
2022/08/02 08:42:32;;;;;;;;;;;;;;;23.13;32.66;97651.69;4932804;29;1007;-78
2022/08/02 08:44:58;;;;;;;;;;;;;;;22.97;32.63;97651.91;4951226;28;1373;-78
2022/08/02 08:47:25;;;;;;;;;;;;;;;22.76;32.51;97650.63;4987485;28;2007;-78
2022/08/02 08:49:51;;;;;;;;;;;;;;;22.80;32.77;97656.19;4970662;28;1323;-78
2022/08/02 08:52:18;;;;;;;;;;;;;;;22.60;32.67;97653.66;4971274;28;1084;-77
2022/08/02 08:54:45;;;;;;;;;;;;;;;22.68;32.63;97654.19;4951558;29;1005;-78
2022/08/02 08:57:10;;;;;;;;;;;;;;;22.53;32.59;97651.06;4952397;28;956;-77
2022/08/02 08:59:36;;;;;;;;;;;;;;;22.82;32.07;97648.78;4941533;29;1521;-77
2022/08/02 09:02:02;;;;;;;;;;;;;;;22.66;31.89;97657.50;4939261;29;1016;-77
2022/08/02 09:04:28;;;;;;;;;;;;;;;22.85;31.63;97652.75;4900516;29;919;-78
2022/08/02 09:06:54;;;;;;;;;;;;;;;22.92;31.31;97648.88;4885581;29;1903;-78
2022/08/02 09:09:19;;;;;;;;;;;;;;;22.83;31.60;97644.69;4900904;29;1056;-78
2022/08/02 09:11:45;;;;;;;;;;;;;;;22.56;32.01;97642.44;4931123;29;964;-78
2022/08/02 09:14:10;;;;;;;;;;;;;;;22.46;32.03;97642.81;4937522;29;1593;-77
2022/08/02 09:16:38;;;;;;;;;;;;;;;22.73;31.77;97651.53;4922987;29;1221;-78
2022/08/02 09:19:35;;;;;;;;;;;;;;;22.89;31.34;97647.75;4938592;29;1036;-78
2022/08/02 09:22:03;;;;;;;;;;;;;;;22.85;31.20;97633.69;4938587;29;979;-78
2022/08/02 09:24:29;;;;;;;;;;;;;;;22.68;31.68;97640.00;4938414;29;1050;-78
2022/08/02 09:26:54;;;;;;;;;;;;;;;22.92;31.25;97646.84;4957661;29;1972;-78
2022/08/02 09:29:22;;;;;;;;;;;;;;;22.75;31.65;97636.94;4975829;28;1310;-78
2022/08/02 09:31:48;;;;;;;;;;;;;;;22.69;31.75;97631.06;4976969;28;1096;-78
2022/08/02 09:34:13;;;;;;;;;;;;;;;22.80;31.93;97645.63;4996255;28;1322;-78
2022/08/02 09:36:42;;;;;;;;;;;;;;;22.79;31.70;97648.91;4993417;28;997;-78
2022/08/02 09:39:11;;;;;;;;;;;;;;;22.59;31.89;97655.72;4996067;28;960;-78
2022/08/02 09:41:41;;;;;;;;;;;;;;;22.90;31.69;97649.34;4995675;28;1343;-78
2022/08/02 09:44:10;;;;;;;;;;;;;;;22.86;31.70;97655.13;4981021;28;945;-78
2022/08/02 09:46:37;;;;;;;;;;;;;;;22.75;31.96;97651.09;5015461;28;1906;-78
2022/08/02 09:49:04;;;;;;;;;;;;;;;22.91;31.51;97650.16;4999760;28;949;-78
2022/08/02 09:51:34;;;;;;;;;;;;;;;22.80;31.64;97651.31;5015915;28;1064;-78
2022/08/02 09:54:00;;;;;;;;;;;;;;;22.84;31.45;97651.16;5015610;28;955;-78
2022/08/02 09:56:27;;;;;;;;;;;;;;;22.99;31.20;97651.44;4975628;28;1452;-78
2022/08/02 09:58:54;;;;;;;;;;;;;;;22.66;31.60;97646.16;4995932;28;992;-78
2022/08/02 10:01:20;;;;;;;;;;;;;;;22.95;31.45;97643.09;4956810;29;1040;-77
2022/08/02 10:03:55;;;;;;;;;;;;;;;22.69;31.61;97661.44;4957018;29;1007;-78
2022/08/02 10:06:20;;;;;;;;;;;;;;;22.76;31.56;97649.84;4956833;28;979;-78
2022/08/02 10:08:45;;;;;;;;;;;;;;;22.67;31.82;97642.06;4955879;29;1989;-78
2022/08/02 10:11:11;;;;;;;;;;;;;;;22.56;32.15;97647.31;4956206;28;997;-78
2022/08/02 10:13:36;;;;;;;;;;;;;;;22.55;32.12;97642.91;4957013;29;953;-78
2022/08/02 10:16:02;;;;;;;;;;;;;;;22.79;31.67;97644.03;4957303;28;1882;-78
2022/08/02 10:18:28;;;;;;;;;;;;;;;22.87;31.45;97630.38;4955994;28;1419;-78
2022/08/02 10:20:54;;;;;;;;;;;;;;;22.74;31.51;97638.97;4956478;28;1442;-78
2022/08/02 10:23:19;;;;;;;;;;;;;;;22.81;31.68;97633.03;4956946;29;1006;-78
2022/08/02 10:25:45;;;;;;;;;;;;;;;22.78;31.64;97633.94;4972693;28;991;-78
2022/08/02 10:28:10;;;;;;;;;;;;;;;23.08;31.05;97648.66;4972693;28;1907;-78
2022/08/02 10:30:36;;;;;;;;;;;;;;;22.97;31.34;97649.06;4956549;29;909;-78
2022/08/02 10:33:03;;;;;;;;;;;;;;;22.95;31.27;97645.09;4990180;28;956;-78
2022/08/02 10:35:29;;;;;;;;;;;;;;;22.83;31.53;97649.56;5044016;28;1352;-78
2022/08/02 10:37:57;;;;;;;;;;;;;;;22.65;31.80;97627.56;5038014;28;954;-77
2022/08/02 10:40:22;;;;;;;;;;;;;;;22.92;31.53;97634.69;4994659;28;1090;-78
2022/08/02 10:42:48;;;;;;;;;;;;;;;22.70;31.66;97643.97;4978976;28;958;-78
2022/08/02 10:45:15;;;;;;;;;;;;;;;22.75;31.53;97631.25;4995335;28;986;-77
2022/08/02 10:47:59;;;;;;;;;;;;;;;22.81;31.49;97641.53;4994726;28;1906;-78
2022/08/02 10:50:43;;;;;;;;;;;;;;;22.56;32.12;97633.94;4993348;28;1495;-80
2022/08/02 10:53:27;;;;;;;;;;;;;;;23.10;33.23;97643.31;4994014;28;1389;-71
2022/08/02 10:55:54;;;;;;;;;;;;;;;23.29;33.29;97636.47;4995799;28;949;-77
2022/08/02 10:58:23;;;;;;;;;;;;;;;23.19;33.11;97642.56;4956825;29;948;-77
2022/08/02 11:00:48;;;;;;;;;;;;;;;23.01;32.85;97643.28;4957102;29;949;-77
2022/08/02 11:03:26;;;;;;;;;;;;;;;23.19;32.47;97643.38;4918484;29;1224;-77
2022/08/02 11:06:00;;;;;;;;;;;;;;;22.88;32.68;97644.13;4917850;29;1342;-77
2022/08/02 11:08:26;;;;;;;;;;;;;;;22.90;32.75;97651.38;4918442;29;1902;-77
2022/08/02 11:10:51;;;;;;;;;;;;;;;22.91;32.45;97655.81;4929754;29;981;-77
2022/08/02 11:13:18;;;;;;;;;;;;;;;22.79;32.70;97644.03;4940367;29;1243;-77
2022/08/02 11:15:47;;;;;;;;;;;;;;;23.04;31.87;97648.00;4937360;29;867;-77
2022/08/02 11:18:13;;;;;;;;;;;;;;;22.96;32.13;97652.38;4901979;29;1390;-77
2022/08/02 11:20:38;;;;;;;;;;;;;;;22.75;31.99;97639.75;4918337;29;843;-77
2022/08/02 11:23:22;;;;;;;;;;;;;;;22.76;32.38;97650.63;4918300;29;951;-77
2022/08/02 11:25:49;;;;;;;;;;;;;;;23.07;31.63;97642.19;4918697;29;916;-77
2022/08/02 11:28:15;;;;;;;;;;;;;;;22.70;32.00;97646.03;4918549;29;1979;-78
2022/08/02 11:30:40;;;;;;;;;;;;;;;23.01;31.47;97648.94;4899514;29;914;-78
2022/08/02 11:33:06;;;;;;;;;;;;;;;22.60;32.03;97653.66;4897638;29;1456;-77
2022/08/02 11:35:32;;;;;;;;;;;;;;;22.68;31.95;97649.31;4869842;29;942;-78
2022/08/02 11:37:58;;;;;;;;;;;;;;;22.66;32.03;97654.66;4881618;29;906;-77
2022/08/02 11:40:24;;;;;;;;;;;;;;;22.83;31.63;97644.69;4880283;29;1407;-78
2022/08/02 11:42:49;;;;;;;;;;;;;;;22.76;32.06;97656.31;4880621;29;880;-77
2022/08/02 11:45:15;;;;;;;;;;;;;;;22.83;31.65;97655.25;4898406;29;962;-77
2022/08/02 11:47:46;;;;;;;;;;;;;;;22.74;31.73;97658.81;4913507;29;1899;-77
2022/08/02 11:50:12;;;;;;;;;;;;;;;22.59;31.82;97652.88;4927425;28;982;-77
2022/08/02 11:52:38;;;;;;;;;;;;;;;22.86;31.19;97652.28;4956483;28;988;-77
2022/08/02 11:55:04;;;;;;;;;;;;;;;22.72;31.33;97655.63;4974469;28;947;-77
2022/08/02 11:57:29;;;;;;;;;;;;;;;23.00;31.15;97650.19;4935433;29;973;-77
2022/08/02 11:59:55;;;;;;;;;;;;;;;22.97;31.10;97642.63;4936368;29;1087;-77
2022/08/02 12:02:21;;;;;;;;;;;;;;;22.87;31.25;97651.03;4931188;29;1881;-76
2022/08/02 12:04:52;;;;;;;;;;;;;;;22.70;31.47;97652.50;4897806;29;986;-76
2022/08/02 12:07:18;;;;;;;;;;;;;;;22.76;31.41;97656.31;4897830;29;1907;-76
2022/08/02 12:09:43;;;;;;;;;;;;;;;22.76;31.39;97650.63;4897741;29;961;-76
2022/08/02 12:12:09;;;;;;;;;;;;;;;22.96;30.96;97663.75;4898001;29;937;-76
2022/08/02 12:14:40;;;;;;;;;;;;;;;22.99;30.95;97657.13;4897231;29;1446;-76
2022/08/02 12:19:49;;;;;;;;;;;;;;;22.95;31.02;97651.59;4897695;29;1011;-76
2022/08/02 12:22:15;;;;;;;;;;;;;;;22.47;31.81;97656.53;4897864;29;1002;-76
2022/08/02 12:24:50;;;;;;;;;;;;;;;22.84;31.52;97643.44;4897685;29;938;-76
2022/08/02 12:27:28;;;;;;;;;;;;;;;22.88;31.46;97638.44;4860237;29;1970;-77
2022/08/02 12:30:19;;;;;;;;;;;;;;;22.76;31.52;97656.31;4859761;29;1404;-76
2022/08/02 12:32:45;;;;;;;;;;;;;;;22.96;31.23;97641.81;4860412;29;1038;-77
2022/08/02 12:35:11;;;;;;;;;;;;;;;22.74;31.58;97646.66;4852082;29;962;-76
2022/08/02 12:37:38;;;;;;;;;;;;;;;22.84;31.15;97649.09;4845671;29;1014;-76
2022/08/02 12:40:22;;;;;;;;;;;;;;;22.91;31.39;97638.78;4870915;29;1581;-77
2022/08/02 12:42:48;;;;;;;;;;;;;;;22.76;31.69;97647.81;4900741;29;1573;-76
2022/08/02 12:45:13;;;;;;;;;;;;;;;22.90;31.54;97638.00;4914500;29;1002;-76
2022/08/02 12:47:50;;;;;;;;;;;;;;;22.88;31.39;97635.63;4923256;29;1981;-76
2022/08/02 12:50:20;;;;;;;;;;;;;;;22.76;31.59;97633.63;4940799;29;1497;-76
2022/08/02 12:52:47;;;;;;;;;;;;;;;22.81;31.33;97632.22;4956274;29;1472;-76
2022/08/02 12:55:15;;;;;;;;;;;;;;;22.73;31.54;97628.06;4958161;29;1028;-76
2022/08/02 12:57:50;;;;;;;;;;;;;;;22.71;31.83;97628.53;4968535;28;942;-76
2022/08/02 13:00:21;;;;;;;;;;;;;;;22.83;31.34;97639.00;4996741;28;1129;-77
2022/08/02 13:02:47;;;;;;;;;;;;;;;22.71;31.91;97637.03;4997068;28;1027;-77
2022/08/02 13:05:12;;;;;;;;;;;;;;;22.73;31.72;97633.75;4996787;28;1070;-76
2022/08/02 13:07:37;;;;;;;;;;;;;;;22.66;31.81;97640.47;4995715;28;1906;-76
2022/08/02 13:10:03;;;;;;;;;;;;;;;22.75;31.31;97642.59;5038789;28;945;-76